Ariton, Alabama
Current Conditions -  °F | °C
As of 2:53 AM on Monday 22 Dec 2014 (Local Time) from KLOR Reporting Station
Haze Haze  
Wind Chill: 52°   Ceiling: 300
Heat Index: 52°   Visibility: 0.75mi
Dew Point: 50°   Wind: 3mph
Humidity: 93%   Direction: 90°E
Pressure: 29.98"   Gusts: NA
Location:  31.6°N, 85.72°W
Report Text: KLOR 220853Z AUTO 09003KT 3/4SM BR VV003 11/10 A2998 RMK AO2 SLP149 6//// T01110100 56004 TSNO PNO $
Loading
Personal Weather Stations






























Interactive Weather Map New forecast layout! Learn more

10-Day Weather Forecast

Advertisements
Track Severe Weather on mobile